Language: 


Des rapports , des résumés tant et plus, au choix de chacun....


Données statistiques de la station
Quotidien Rapport Décembre 27, 2017 Unités:  Métrique    Anglais   les deux
« Précédent Jour
Suivant Jour »
Quotidien Hebdomadaire Mensuel Annuel Actuel
  Haut: Bas: Moyen:
Température: -17.8 °C -17.8 °C -14.6 °C
Pt de rosée: -17.8 °C -16.7 °C -15.1 °C
Humidité: Humidity % 0 % 91 %
Vitesse du vent: 0 km/h 0 km/h 21.1 km/h
Rafales: 0 km/h - -
Vent:- - WSW
Pression: 0 hPa 0 hPa -
Précipitation: 218.44 mm    
Historical Graphs
 
 
Données statistiques pour Décembre 27, 2017
Heure Température Point de rosée Pression Vent Vitesse du vent Refales Humidité Pluie (taux horaire)
-17.8 °C -17.8 °C 0 hPa Calm     Humidity % 0 mm
00:04 -13.8 °C -14.4 °C 33856.6 hPa WSW 31.4 km/h 43.5 km/h 91 % 0 mm
00:05 -13.8 °C -14.4 °C 33856.6 hPa WSW 31.4 km/h 43.5 km/h 91 % 0 mm
00:10 -13.4 °C -15 °C 33822.8 hPa SW 33.6 km/h 39.9 km/h 81 % 0 mm
00:15 -13.4 °C -15 °C 33822.8 hPa SW 33.6 km/h 39.9 km/h 81 % 0 mm
00:16 -13.8 °C -14.4 °C 33856.6 hPa WSW 31.4 km/h 43.5 km/h 91 % 0 mm
00:17 -13.4 °C -15 °C 33822.8 hPa SW 33.6 km/h 39.9 km/h 81 % 0 mm
00:21 -13.4 °C -15 °C 33822.8 hPa SW 33.6 km/h 39.9 km/h 81 % 0 mm
00:22 -13.4 °C -15 °C 33822.8 hPa SW 33.6 km/h 39.9 km/h 81 % 0 mm
00:27 -13.4 °C -15 °C 33822.8 hPa SW 33.6 km/h 39.9 km/h 81 % 0 mm
00:30 -13.8 °C -14.4 °C 33856.6 hPa WSW 31.4 km/h 43.5 km/h 91 % 0 mm
00:34 -13.4 °C -15 °C 33822.8 hPa SW 33.6 km/h 39.9 km/h 81 % 0 mm
00:39 -13.8 °C -14.4 °C 33856.6 hPa WSW 31.4 km/h 43.5 km/h 91 % 0 mm
00:40 -13.4 °C -15 °C 33822.8 hPa SW 33.6 km/h 39.9 km/h 81 % 0 mm
00:45 -13.4 °C -15 °C 33822.8 hPa SW 33.6 km/h 39.9 km/h 81 % 0 mm
00:46 -13.4 °C -15 °C 33822.8 hPa SW 33.6 km/h 39.9 km/h 81 % 0 mm
00:48 -13.4 °C -15 °C 33822.8 hPa SW 33.6 km/h 39.9 km/h 81 % 0 mm
00:53 -13.8 °C -14.4 °C 33856.6 hPa WSW 31.4 km/h 43.5 km/h 91 % 0 mm
00:58 -13.4 °C -15 °C 33822.8 hPa SW 33.6 km/h 39.9 km/h 81 % 0 mm
01:03 -13.4 °C -15 °C 33822.8 hPa SW 33.6 km/h 39.9 km/h 81 % 0 mm
01:04 -13.8 °C -14.4 °C 33856.6 hPa WSW 31.4 km/h 43.5 km/h 91 % 0 mm
01:05 -13.8 °C -14.4 °C 33856.6 hPa WSW 31.4 km/h 43.5 km/h 91 % 0 mm
01:10 -13.4 °C -15 °C 33822.8 hPa SW 33.6 km/h 39.9 km/h 81 % 0 mm
01:15 -13.8 °C -14.4 °C 33856.6 hPa WSW 31.4 km/h 43.5 km/h 91 % 0 mm
01:16 -13.4 °C -15 °C 33822.8 hPa SW 33.6 km/h 39.9 km/h 81 % 0 mm
01:21 -13.8 °C -14.4 °C 33856.6 hPa WSW 31.4 km/h 43.5 km/h 91 % 0 mm
01:26 -13.4 °C -15 °C 33822.8 hPa SW 33.6 km/h 39.9 km/h 81 % 0 mm
01:28 -13.4 °C -15 °C 33822.8 hPa SW 33.6 km/h 39.9 km/h 81 % 0 mm
01:31 -13.8 °C -14.4 °C 33856.6 hPa WSW 31.4 km/h 43.5 km/h 91 % 0 mm
01:33 -13.8 °C -14.4 °C 33856.6 hPa WSW 31.4 km/h 43.5 km/h 91 % 0 mm
01:34 -13.4 °C -15 °C 33822.8 hPa SW 33.6 km/h 39.9 km/h 81 % 0 mm
01:38 -13.4 °C -15 °C 33822.8 hPa SW 33.6 km/h 39.9 km/h 81 % 0 mm
01:40 -13.4 °C -15 °C 33822.8 hPa SW 33.6 km/h 39.9 km/h 81 % 0 mm
01:43 -13.4 °C -15 °C 33822.8 hPa SW 33.6 km/h 39.9 km/h 81 % 0 mm
01:47 -13.4 °C -15 °C 33822.8 hPa SW 33.6 km/h 39.9 km/h 81 % 0 mm
01:49 -13.4 °C -15 °C 33822.8 hPa SW 33.6 km/h 39.9 km/h 81 % 0 mm
01:54 -13.8 °C -14.4 °C 33856.6 hPa WSW 31.4 km/h 43.5 km/h 91 % 0 mm
01:55 -13.4 °C -15 °C 33822.8 hPa SW 33.6 km/h 39.9 km/h 81 % 0 mm
02:00 -13.4 °C -15 °C 33822.8 hPa SW 33.6 km/h 39.9 km/h 81 % 0 mm
02:05 -13.4 °C -15 °C 33822.8 hPa SW 33.6 km/h 39.9 km/h 81 % 0 mm
02:07 -13.4 °C -15 °C 33822.8 hPa SW 33.6 km/h 39.9 km/h 81 % 0 mm
02:11 -13.4 °C -15 °C 33822.8 hPa SW 33.6 km/h 39.9 km/h 81 % 0 mm
02:16 -13.4 °C -15 °C 33822.8 hPa SW 33.6 km/h 39.9 km/h 81 % 0 mm
02:21 -13.4 °C -15 °C 33822.8 hPa SW 33.6 km/h 39.9 km/h 81 % 0 mm
02:24 -13.8 °C -14.4 °C 33856.6 hPa WSW 31.4 km/h 43.5 km/h 91 % 0 mm
02:26 -13.4 °C -15 °C 33822.8 hPa SW 33.6 km/h 39.9 km/h 81 % 0 mm
02:31 -13.8 °C -14.4 °C 33856.6 hPa WSW 31.4 km/h 43.5 km/h 91 % 0 mm
02:34 -13.4 °C -15 °C 33822.8 hPa SW 33.6 km/h 39.9 km/h 81 % 0 mm
02:37 -13.4 °C -15 °C 33822.8 hPa SW 33.6 km/h 39.9 km/h 81 % 0 mm
02:39 -13.8 °C -14.4 °C 33856.6 hPa WSW 31.4 km/h 43.5 km/h 91 % 0 mm
02:42 -13.8 °C -14.4 °C 33856.6 hPa WSW 31.4 km/h 43.5 km/h 91 % 0 mm
02:47 -13.8 °C -14.4 °C 33856.6 hPa WSW 31.4 km/h 43.5 km/h 91 % 0 mm
02:49 -13.8 °C -14.4 °C 33856.6 hPa WSW 31.4 km/h 43.5 km/h 91 % 0 mm
02:50 -13.4 °C -15 °C 33822.8 hPa SW 33.6 km/h 39.9 km/h 81 % 0 mm
02:54 -13.8 °C -14.4 °C 33856.6 hPa WSW 31.4 km/h 43.5 km/h 91 % 0 mm
02:55 -13.8 °C -14.4 °C 33856.6 hPa WSW 31.4 km/h 43.5 km/h 91 % 0 mm
08:37 -14.2 °C -13.9 °C 0 hPa WSW 15 km/h 15 km/h 98 % 0 mm
08:39 -14.2 °C -13.9 °C 33145.6 hPa SSW 12.7 km/h 15 km/h 98 % 0 mm
08:42 -14.2 °C -13.9 °C 33145.6 hPa SSW 12.7 km/h 15 km/h 98 % 0 mm
08:44 -14.3 °C -14.4 °C 33145.6 hPa Calm   15 km/h 98 % 0 mm
08:49 -14.2 °C -13.9 °C 33145.6 hPa SSW 12.7 km/h 15 km/h 98 % 0 mm
08:54 -14.4 °C -14.4 °C 33145.6 hPa SSW 19.6 km/h 19.6 km/h 98 % 0 mm
08:59 -14.4 °C -14.4 °C 33145.6 hPa SSW 14.5 km/h 19.6 km/h 98 % 0 mm
09:02 -14.4 °C -14.4 °C 33145.6 hPa SSW 12.2 km/h 19.6 km/h 98 % 0 mm
09:08 -17.8 °C -14.4 °C 33145.6 hPa SSW 8.9 km/h 14.5 km/h 0 % 0 mm
09:12 -14.4 °C -14.4 °C 33179.4 hPa SSW 6.9 km/h 12.7 km/h 98 % 0 mm
09:17 -14.4 °C -14.4 °C 33179.4 hPa SW 9.8 km/h 12.7 km/h 98 % 0 mm
09:18 -14.4 °C -14.4 °C 33179.4 hPa SSW 9.3 km/h 12.7 km/h 98 % 0 mm
09:23 -14.4 °C -14.4 °C 33179.4 hPa SSW 9.8 km/h 15.6 km/h 98 % 0 mm
09:26 -14.4 °C -14.4 °C 33179.4 hPa Calm   15.6 km/h 98 % 0 mm
09:31 -14.4 °C -14.4 °C 33179.4 hPa Calm   15.6 km/h 98 % 0 mm
09:33 -14.4 °C -14.4 °C 33179.4 hPa Calm   15.6 km/h 98 % 0 mm
09:38 -14.4 °C -14.4 °C 33179.4 hPa SSW 7.6 km/h 14.5 km/h 98 % 0 mm
09:39 -14.4 °C -14.4 °C 33179.4 hPa Calm   14.5 km/h 98 % 0 mm
09:44 -14.4 °C -14.4 °C 33179.4 hPa South 12.7 km/h 14.5 km/h 98 % 0 mm
09:45 -14.4 °C -14.4 °C 33179.4 hPa Calm   14.5 km/h 98 % 0 mm
09:50 -14.4 °C -14.4 °C 33179.4 hPa SSW 8.9 km/h 12.7 km/h 98 % 0 mm
09:52 -14.4 °C -14.4 °C 33179.4 hPa South 14.5 km/h 14.5 km/h 98 % 0 mm
09:57 -14.3 °C -14.4 °C 33213.3 hPa SSW 8.9 km/h 18.7 km/h 98 % 0 mm
10:01 -14.2 °C -13.9 °C 33213.3 hPa South 9.3 km/h 18.7 km/h 98 % 0 mm
10:03 -14.1 °C -13.9 °C 33213.3 hPa SSW 11.1 km/h 18.7 km/h 98 % 0 mm
10:06 -14.1 °C -13.9 °C 33213.3 hPa SSW 12.7 km/h 20.9 km/h 98 % 0 mm
10:08 -14.1 °C -13.9 °C 33213.3 hPa SSW 9.8 km/h 20.9 km/h 98 % 0 mm
10:13 -14.1 °C -13.9 °C 33213.3 hPa South 14 km/h 20.9 km/h 98 % 0 mm
10:18 -14.1 °C -13.9 °C 33213.3 hPa SSW 10.3 km/h 20.9 km/h 98 % 0 mm
10:23 -14.1 °C -14.4 °C 33213.3 hPa SSW 9.8 km/h 20.9 km/h 97 % 0 mm
10:25 -14.1 °C -14.4 °C 33213.3 hPa Calm   16.3 km/h 97 % 0 mm
10:30 -14.1 °C -14.4 °C 33213.3 hPa SW 18.7 km/h 18.7 km/h 97 % 0 mm
10:35 -14.1 °C -14.4 °C 33213.3 hPa South 8.9 km/h 20.9 km/h 97 % 0 mm
10:36 -14 °C -14.4 °C 33213.3 hPa SSW 10.3 km/h 20.9 km/h 96 % 0 mm
10:41 -13.9 °C -13.9 °C 33213.3 hPa SW 14 km/h 26.2 km/h 96 % 0 mm
10:46 -13.7 °C -13.9 °C 33213.3 hPa SSW 16.3 km/h 26.2 km/h 96 % 0 mm
10:49 -13.6 °C -13.9 °C 33213.3 hPa SW 19.6 km/h 24.8 km/h 95 % 0 mm
10:52 -13.6 °C -13.9 °C 33213.3 hPa WSW 20.9 km/h 24.8 km/h 95 % 0 mm
10:55 -13.6 °C -13.9 °C 33213.3 hPa SSW 20.9 km/h 25.4 km/h 95 % 0 mm
11:00 -13.7 °C -14.4 °C 33213.3 hPa SW 20.9 km/h 34.1 km/h 93 % 0 mm
11:05 -13.7 °C -14.4 °C 33213.3 hPa South 14.5 km/h 34.1 km/h 91 % 0 mm
11:08 -13.7 °C -14.4 °C 33213.3 hPa WSW 15 km/h 26.2 km/h 91 % 0 mm
11:13 -13.7 °C -14.4 °C 33213.3 hPa SSW 16.9 km/h 24.3 km/h 91 % 0 mm
11:16 -13.6 °C -14.4 °C 33213.3 hPa SSW 16.9 km/h 22.5 km/h 91 % 0 mm
11:19 -13.5 °C -14.4 °C 33213.3 hPa SSW 19.2 km/h 31.9 km/h 90 % 0 mm
11:23 -13.4 °C -14.4 °C 33213.3 hPa SSW 16.3 km/h 31.9 km/h 90 % 0 mm
11:24 -13.4 °C -14.4 °C 33213.3 hPa SSW 16.3 km/h 31.9 km/h 90 % 0 mm
11:29 -13.4 °C -14.4 °C 33213.3 hPa SW 26.2 km/h 31.4 km/h 88 % 0 mm
11:31 -13.5 °C -14.4 °C 33213.3 hPa SSW 26.2 km/h 31.4 km/h 88 % 0 mm
11:32 -13.5 °C -14.4 °C 33213.3 hPa SW 27.7 km/h 31.4 km/h 87 % 0 mm
11:37 -13.7 °C -15 °C 33213.3 hPa SSW 22.5 km/h 27.7 km/h 86 % 0 mm
11:38 -13.7 °C -15 °C 33213.3 hPa WSW 19.2 km/h 27.7 km/h 86 % 0 mm
11:43 -13.7 °C -15 °C 33213.3 hPa SW 12.7 km/h 31.4 km/h 86 % 0 mm
11:48 -13.6 °C -14.4 °C 33213.3 hPa SSW 9.8 km/h 31.4 km/h 87 % 0 mm
11:49 -13.6 °C -14.4 °C 33213.3 hPa SSW 10.3 km/h 31.4 km/h 87 % 0 mm
11:54 -13.6 °C -14.4 °C 33213.3 hPa Calm   20.9 km/h 87 % 0 mm
11:59 -13.6 °C -14.4 °C 33213.3 hPa SSW 7.6 km/h 19.6 km/h 87 % 0 mm
12:00 -13.6 °C -14.4 °C 33213.3 hPa SSW 11.1 km/h 19.6 km/h 87 % 0 mm
12:05 -13.6 °C -14.4 °C 33213.3 hPa SW 20.3 km/h 20.9 km/h 87 % 0 mm
12:07 -13.6 °C -14.4 °C 33213.3 hPa SSW 15 km/h 22 km/h 87 % 0 mm
12:08 -13.7 °C -14.4 °C 33213.3 hPa SSW 12.2 km/h 22 km/h 87 % 0 mm
12:13 -13.7 °C -14.4 °C 33213.3 hPa SSW 15 km/h 22 km/h 87 % 0 mm
12:14 -13.7 °C -14.4 °C 33213.3 hPa SSW 14.5 km/h 22 km/h 87 % 0 mm
12:19 -13.7 °C -15 °C 33213.3 hPa SW 19.6 km/h 26.2 km/h 86 % 0 mm
12:20 -13.7 °C -15 °C 33213.3 hPa South 14 km/h 26.2 km/h 86 % 0 mm
12:25 -13.8 °C -15 °C 33213.3 hPa SSW 15.6 km/h 26.2 km/h 86 % 0 mm
12:26 -13.8 °C -15 °C 33213.3 hPa SSW 16.9 km/h 26.2 km/h 86 % 0 mm
12:31 -13.8 °C -14.4 °C 33213.3 hPa South 14 km/h 25.4 km/h 87 % 0 mm
12:32 -13.8 °C -14.4 °C 33213.3 hPa SSW 14.5 km/h 25.4 km/h 87 % 0 mm
12:37 -13.7 °C -14.4 °C 33213.3 hPa South 2.9 km/h 22.5 km/h 87 % 0 mm
12:38 -13.7 °C -14.4 °C 33213.3 hPa South 16.9 km/h 26.2 km/h 88 % 0 mm
12:44 -13.6 °C -14.4 °C 33213.3 hPa South 19.6 km/h 26.2 km/h 88 % 0 mm
12:45 -13.6 °C -14.4 °C 33213.3 hPa SSW 12.7 km/h 26.2 km/h 88 % 0 mm
12:50 -13.6 °C -14.4 °C 33213.3 hPa South 15 km/h 22 km/h 88 % 0 mm
12:55 -13.6 °C -14.4 °C 33213.3 hPa SW 16.9 km/h 25.4 km/h 87 % 0 mm
12:56 -13.6 °C -14.4 °C 33213.3 hPa South 19.2 km/h 25.4 km/h 87 % 0 mm
12:57 -13.5 °C -14.4 °C 33213.3 hPa SSW 14.5 km/h 25.4 km/h 87 % 0 mm
13:02 -13.5 °C -14.4 °C 33213.3 hPa WSW 20.3 km/h 25.4 km/h 87 % 0 mm
13:05 -13.5 °C -14.4 °C 33213.3 hPa SW 19.2 km/h 26.2 km/h 87 % 0 mm
13:06 -13.5 °C -14.4 °C 33213.3 hPa SW 14.5 km/h 26.2 km/h 87 % 0 mm
13:11 -13.5 °C -14.4 °C 33179.4 hPa SSW 19.2 km/h 26.2 km/h 87 % 0 mm
13:16 -13.6 °C -14.4 °C 33179.4 hPa SSW 15.6 km/h 23.8 km/h 86 % 0 mm
13:21 -13.7 °C -15 °C 33179.4 hPa SSW 16.3 km/h 23.8 km/h 86 % 0 mm
13:22 -13.7 °C -15 °C 33179.4 hPa SSW 16.3 km/h 23.8 km/h 86 % 0 mm
13:26 -13.7 °C -15 °C 33179.4 hPa SW 7.6 km/h 20.3 km/h 86 % 0 mm
13:31 -13.8 °C -15 °C 33179.4 hPa SW 12.7 km/h 27.2 km/h 86 % 0 mm
13:37 -13.8 °C -15 °C 33179.4 hPa SW 14.5 km/h 27.2 km/h 86 % 0 mm
13:38 -13.8 °C -15 °C 33179.4 hPa SW 12.7 km/h 27.2 km/h 86 % 0 mm
13:43 -13.9 °C -15 °C 33179.4 hPa WSW 10.3 km/h 19.6 km/h 87 % 0 mm
13:44 -13.9 °C -15 °C 33179.4 hPa SW 14.5 km/h 19.6 km/h 87 % 0 mm
13:48 -13.9 °C -15 °C 33179.4 hPa SW 10.3 km/h 20.3 km/h 87 % 0 mm
13:53 -14 °C -15 °C 33179.4 hPa WSW 20.9 km/h 20.9 km/h 88 % 0 mm
13:58 -14.1 °C -15 °C 33213.3 hPa WSW 14 km/h 20.9 km/h 89 % 0 mm
14:00 -14.1 °C -15 °C 33213.3 hPa SW 11.1 km/h 20.9 km/h 89 % 0 mm
14:05 -14.1 °C -15 °C 33213.3 hPa Calm   16.9 km/h 89 % 0 mm
14:06 -14.1 °C -15 °C 33213.3 hPa Calm   16.9 km/h 90 % 0 mm
14:11 -14.1 °C -15 °C 33213.3 hPa SW 15 km/h 18.7 km/h 90 % 0 mm
14:14 -14.1 °C -15 °C 33213.3 hPa Calm   18.7 km/h 90 % 0 mm
14:18 -14.1 °C -14.4 °C 33213.3 hPa SSW 2.3 km/h 18.7 km/h 91 % 0 mm
14:19 -14.1 °C -14.4 °C 33213.3 hPa SSW 9.8 km/h 16.9 km/h 91 % 0 mm
14:24 -14.1 °C -14.4 °C 33213.3 hPa SSW 11.1 km/h 16.9 km/h 92 % 0 mm
14:26 -14.1 °C -14.4 °C 33213.3 hPa WSW 14.5 km/h 15.6 km/h 92 % 0 mm
14:31 -14.1 °C -14.4 °C 33213.3 hPa SSW 9.8 km/h 16.9 km/h 92 % 0 mm
14:33 -14.1 °C -14.4 °C 33213.3 hPa WSW 14.5 km/h 19.2 km/h 92 % 0 mm
14:35 -14.1 °C -14.4 °C 33213.3 hPa SW 19.6 km/h 19.6 km/h 92 % 0 mm
14:40 -14.1 °C -14.4 °C 33213.3 hPa WSW 12.2 km/h 19.6 km/h 93 % 0 mm
14:41 -14.1 °C -14.4 °C 33213.3 hPa WSW 12.2 km/h 19.6 km/h 93 % 0 mm
14:42 -14.1 °C -14.4 °C 33213.3 hPa South 11.1 km/h 19.6 km/h 93 % 0 mm
14:47 -14.1 °C -14.4 °C 33213.3 hPa Calm   16.3 km/h 93 % 0 mm
14:52 -14.3 °C -15 °C 33213.3 hPa SW 19.6 km/h 39.9 km/h 92 % 7.62 mm
14:57 -14.6 °C -15 °C 33247.1 hPa West 8.9 km/h 39.9 km/h 92 % 7.62 mm
14:58 -14.6 °C -15 °C 33247.1 hPa West 6.9 km/h 37.5 km/h 92 % 7.62 mm
15:00 -14.6 °C -15 °C 33247.1 hPa West 9.8 km/h 34.1 km/h 92 % 7.62 mm
15:05 -14.7 °C -15 °C 33247.1 hPa West 28.5 km/h 28.5 km/h 93 % 7.62 mm
15:08 -14.8 °C -15 °C 33247.1 hPa West 14.5 km/h 28.5 km/h 93 % 7.62 mm
15:13 -14.8 °C -15 °C 33247.1 hPa WSW 2.9 km/h 28.5 km/h 95 % 7.62 mm
15:15 -14.8 °C -15 °C 33247.1 hPa NW 15 km/h 29 km/h 95 % 7.62 mm
15:20 -14.9 °C -15 °C 33247.1 hPa West 26.2 km/h 30.7 km/h 95 % 7.62 mm
15:22 -14.9 °C -15 °C 33247.1 hPa WNW 10.3 km/h 30.7 km/h 95 % 7.62 mm
15:26 -14.9 °C -15 °C 33247.1 hPa NNW 14 km/h 30.7 km/h 95 % 7.62 mm
15:31 -14.8 °C -15 °C 33247.1 hPa West 19.2 km/h 27.2 km/h 96 % 20.32 mm
15:33 -14.9 °C -15 °C 33247.1 hPa NW 28.5 km/h 28.5 km/h 96 % 20.32 mm
15:38 -14.9 °C -15 °C 33247.1 hPa West 15.6 km/h 28.5 km/h 96 % 20.32 mm
15:43 -14.9 °C -15 °C 33247.1 hPa West 22 km/h 27.2 km/h 97 % 20.32 mm
15:44 -14.9 °C -15 °C 33247.1 hPa WSW 27.2 km/h 27.2 km/h 97 % 20.32 mm
15:46 -14.9 °C -15 °C 33247.1 hPa West 19.6 km/h 27.2 km/h 97 % 20.32 mm
15:51 -14.9 °C -15 °C 33247.1 hPa NW 10.3 km/h 28.5 km/h 97 % 20.32 mm
15:56 -14.9 °C -15 °C 33247.1 hPa NW 15 km/h 31.9 km/h 97 % 7.62 mm
15:57 -14.9 °C -15 °C 33247.1 hPa West 10.3 km/h 31.9 km/h 98 % 7.62 mm
16:02 -14.9 °C -15 °C 33247.1 hPa West 24.8 km/h 31.9 km/h 98 % 7.62 mm
16:07 -14.9 °C -15 °C 33247.1 hPa WNW 16.3 km/h 31.9 km/h 98 % 7.62 mm
16:08 -15 °C -15 °C 33247.1 hPa West 15.6 km/h 31.9 km/h 98 % 7.62 mm
16:13 -15 °C -15 °C 33247.1 hPa WSW 23 km/h 37 km/h 98 % 7.62 mm
16:17 -15 °C -15 °C 33247.1 hPa WSW 20.3 km/h 37 km/h 98 % 7.62 mm
16:22 -15 °C -15 °C 33247.1 hPa WSW 20.3 km/h 37 km/h 98 % 7.62 mm
16:23 -15 °C -15 °C 33247.1 hPa WSW 20.3 km/h 37 km/h 98 % 7.62 mm
16:29 -14.9 °C -15 °C 33213.3 hPa WSW 39.9 km/h 39.9 km/h 98 % 7.62 mm
16:32 -14.9 °C -15 °C 33213.3 hPa NW 14 km/h 39.9 km/h 98 % 0 mm
16:34 -14.9 °C -15 °C 33213.3 hPa WNW 6.4 km/h 39.9 km/h 98 % 0 mm
16:39 -14.9 °C -15 °C 33213.3 hPa WNW 17.9 km/h 22.5 km/h 98 % 0 mm
16:41 -14.9 °C -15 °C 33247.1 hPa NNW 28.5 km/h 28.5 km/h 98 % 0 mm
16:46 -14.9 °C -15 °C 33247.1 hPa NNW 26.7 km/h 31.9 km/h 98 % 0 mm
16:47 -14.9 °C -15 °C 33247.1 hPa NNW 19.6 km/h 33.2 km/h 98 % 0 mm
16:52 -14.9 °C -15 °C 33247.1 hPa NNW 33.2 km/h 37 km/h 98 % 0 mm
16:53 -14.9 °C -15 °C 33247.1 hPa NNW 34.1 km/h 68.9 km/h 98 % 0 mm
16:58 -14.9 °C -15 °C 33284.4 hPa North 20.9 km/h 68.9 km/h 98 % 0 mm
16:59 -14.9 °C -15 °C 33284.4 hPa NNW 31.4 km/h 68.9 km/h 98 % 0 mm
17:04 -14.9 °C -15 °C 33284.4 hPa NW 62.6 km/h 62.6 km/h 98 % 0 mm
17:05 -14.9 °C -15 °C 33284.4 hPa North 41.2 km/h 62.6 km/h 98 % 0 mm
17:10 -14.9 °C -15 °C 33284.4 hPa NE 16.9 km/h 62.6 km/h 98 % 0 mm
17:11 -14.9 °C -15 °C 33318.2 hPa NNW 63.7 km/h 63.7 km/h 98 % 7.62 mm
17:16 -14.9 °C -15 °C 33318.2 hPa NNW 32.3 km/h 63.7 km/h 98 % 7.62 mm
17:20 -14.9 °C -15 °C 33318.2 hPa NNW 20.9 km/h 63.7 km/h 98 % 12.7 mm
17:25 -14.9 °C -15 °C 33318.2 hPa NNW 23 km/h 59.5 km/h 98 % 12.7 mm
17:27 -14.9 °C -15 °C 33352.1 hPa North 42.2 km/h 58.6 km/h 98 % 20.32 mm
17:32 -14.9 °C -15 °C 33352.1 hPa North 22.5 km/h 86.3 km/h 98 % 20.32 mm
17:33 -14.9 °C -15 °C 33352.1 hPa WNW 44.6 km/h 86.3 km/h 98 % 20.32 mm
17:38 -14.9 °C -15 °C 33352.1 hPa NNW 24.8 km/h 86.3 km/h 98 % 33.02 mm
17:39 -15.4 °C -15.6 °C 33352.1 hPa North 51.5 km/h 77.1 km/h 97 % 33.02 mm
17:44 -15.5 °C -15.6 °C 33352.1 hPa NW 44.1 km/h 65.5 km/h 97 % 38.1 mm
17:47 -15.5 °C -15.6 °C 33352.1 hPa NNW 26.7 km/h 65.5 km/h 98 % 38.1 mm
17:49 -15.4 °C -15.6 °C 33352.1 hPa North 49.2 km/h 65.5 km/h 98 % 38.1 mm
17:54 -15.4 °C -15.6 °C 33352.1 hPa North 45.1 km/h 78.7 km/h 97 % 45.72 mm
17:55 -15.4 °C -15.6 °C 33352.1 hPa NW 27.7 km/h 78.7 km/h 97 % 45.72 mm
18:00 -15.4 °C -15.6 °C 33386 hPa North 20.9 km/h 78.7 km/h 97 % 58.42 mm
18:01 -15.4 °C -15.6 °C 33386 hPa North 23.8 km/h 78.7 km/h 97 % 58.42 mm
18:06 -15.4 °C -15.6 °C 33386 hPa NNE 37 km/h 67.9 km/h 98 % 63.5 mm
18:08 -15.4 °C -15.6 °C 33386 hPa NNW 45.9 km/h 67.9 km/h 98 % 63.5 mm
18:12 -15.3 °C -15.6 °C 33419.8 hPa WNW 20.3 km/h 87.5 km/h 98 % 58.42 mm
18:17 -15.4 °C -15.6 °C 33419.8 hPa North 52 km/h 87.5 km/h 97 % 58.42 mm
18:21 -15.7 °C -16.1 °C 33419.8 hPa NNE 46.3 km/h 67.9 km/h 94 % 58.42 mm
18:23 -15.7 °C -16.1 °C 33419.8 hPa NNW 51.5 km/h 67.9 km/h 94 % 58.42 mm
18:28 -15.7 °C -16.1 °C 33386 hPa North 49.2 km/h 74 km/h 94 % 58.42 mm
18:29 -15.7 °C -16.1 °C 33386 hPa North 20.3 km/h 74 km/h 94 % 58.42 mm
18:34 -15.6 °C -16.1 °C 33386 hPa NNW 22 km/h 74 km/h 95 % 58.42 mm
18:37 -15.6 °C -16.1 °C 33386 hPa NW 25.4 km/h 66.6 km/h 95 % 45.72 mm
18:42 -15.6 °C -16.1 °C 33453.7 hPa WNW 41.2 km/h 60.8 km/h 95 % 38.1 mm
18:47 -15.7 °C -16.1 °C 33453.7 hPa North 20.3 km/h 45.9 km/h 96 % 38.1 mm
18:49 -15.7 °C -16.1 °C 33453.7 hPa North 19.6 km/h 41.2 km/h 97 % 45.72 mm
18:54 -15.7 °C -15.6 °C 33453.7 hPa NNE 31.9 km/h 38.3 km/h 98 % 38.1 mm
18:59 -15.7 °C -15.6 °C 33490.9 hPa WNW 10.3 km/h 38.3 km/h 98 % 45.72 mm
19:05 -15.8 °C -15.6 °C 33490.9 hPa NNW 27.7 km/h 39.9 km/h 98 % 45.72 mm
19:07 -15.8 °C -15.6 °C 33490.9 hPa NNW 28.5 km/h 45.1 km/h 98 % 45.72 mm
19:13 -15.8 °C -15.6 °C 33490.9 hPa NW 31.9 km/h 63.7 km/h 98 % 38.1 mm
19:16 -15.8 °C -15.6 °C 33490.9 hPa North 14.5 km/h 63.7 km/h 98 % 38.1 mm
19:17 -15.8 °C -15.6 °C 33490.9 hPa North 33.2 km/h 63.7 km/h 98 % 38.1 mm
19:23 -15.8 °C -15.6 °C 33490.9 hPa North 17.4 km/h 48.1 km/h 98 % 33.02 mm
19:26 -15.7 °C -15.6 °C 33490.9 hPa North 22.5 km/h 48.1 km/h 98 % 38.1 mm
19:27 -15.7 °C -15.6 °C 33490.9 hPa North 19.6 km/h 48.1 km/h 98 % 38.1 mm
19:33 -15.7 °C -15.6 °C 33490.9 hPa NW 15 km/h 39.9 km/h 98 % 45.72 mm
19:34 -15.6 °C -15.6 °C 33490.9 hPa NNW 14 km/h 39.9 km/h 98 % 45.72 mm
19:39 -15.6 °C -15.6 °C 33490.9 hPa North 20.3 km/h 31.9 km/h 98 % 58.42 mm
19:41 -15.6 °C -15.6 °C 33490.9 hPa North 20.9 km/h 31.9 km/h 98 % 63.5 mm
19:46 -15.4 °C -15.6 °C 33490.9 hPa NNE 11.1 km/h 30.7 km/h 98 % 63.5 mm
19:47 -15.4 °C -15.6 °C 33490.9 hPa West 14.5 km/h 30.7 km/h 98 % 63.5 mm
19:52 -15.3 °C -15.6 °C 33490.9 hPa North 39.4 km/h 49.7 km/h 98 % 58.42 mm
19:54 -15.3 °C -15.6 °C 33490.9 hPa NNW 27.2 km/h 55.7 km/h 98 % 58.42 mm
19:59 -15.3 °C -15 °C 33524.8 hPa WNW 27.2 km/h 55.7 km/h 98 % 38.1 mm
20:00 -15.3 °C -15 °C 33524.8 hPa NNW 25.4 km/h 55.7 km/h 98 % 33.02 mm
20:05 -15.3 °C -15.6 °C 33524.8 hPa West 28.5 km/h 50.5 km/h 98 % 38.1 mm
20:08 -15.3 °C -15.6 °C 33524.8 hPa NW 32.3 km/h 50.5 km/h 97 % 38.1 mm
20:13 -15.3 °C -15.6 °C 33592.5 hPa NW 9.8 km/h 39.4 km/h 96 % 38.1 mm
20:16 -15.3 °C -15.6 °C 33592.5 hPa NNW 26.7 km/h 39.4 km/h 96 % 38.1 mm
20:23 -15.3 °C -15.6 °C 33592.5 hPa NNW 15.6 km/h 39.4 km/h 95 % 33.02 mm
20:26 -15.3 °C -15.6 °C 33558.6 hPa NW 31.9 km/h 49.7 km/h 95 % 33.02 mm
20:30 -15.3 °C -15.6 °C 33558.6 hPa North 37.5 km/h 49.7 km/h 95 % 33.02 mm
20:35 -15.3 °C -16.1 °C 33558.6 hPa NW 22.5 km/h 49.7 km/h 93 % 12.7 mm
20:38 -15.3 °C -16.1 °C 33558.6 hPa WNW 22 km/h 49.7 km/h 93 % 12.7 mm
20:43 -15.3 °C -16.1 °C 33558.6 hPa North 22 km/h 49.7 km/h 92 % 7.62 mm
20:46 -15.3 °C -16.1 °C 33558.6 hPa West 18.7 km/h 49.7 km/h 92 % 7.62 mm
20:50 -15.3 °C -16.1 °C 33558.6 hPa NNW 20.3 km/h 39.9 km/h 91 % 7.62 mm
20:55 -15.3 °C -16.1 °C 33558.6 hPa NNE 22.5 km/h 41.7 km/h 92 % 7.62 mm
20:57 -15.3 °C -16.1 °C 33592.5 hPa WNW 20.9 km/h 41.7 km/h 91 % 7.62 mm
20:59 -15.3 °C -16.1 °C 33592.5 hPa West 27.7 km/h 41.7 km/h 91 % 7.62 mm
21:02 -15.3 °C -16.1 °C 33592.5 hPa North 19.2 km/h 41.2 km/h 91 % 7.62 mm
21:06 -15.3 °C -16.1 °C 33592.5 hPa NNE 28.5 km/h 35.2 km/h 91 % 0 mm
21:08 -15.3 °C -16.1 °C 33592.5 hPa NW 37 km/h 45.9 km/h 91 % 0 mm
21:13 -15.3 °C -16.1 °C 33626.4 hPa West 16.9 km/h 45.9 km/h 90 % 0 mm
21:14 -15.3 °C -16.1 °C 33626.4 hPa NNW 12.2 km/h 45.9 km/h 90 % 0 mm
21:19 -15.3 °C -16.1 °C 33626.4 hPa NNW 24.8 km/h 44.6 km/h 90 % 0 mm
21:23 -15.3 °C -16.1 °C 33626.4 hPa North 19.6 km/h 44.6 km/h 90 % 0 mm
21:28 -15.3 °C -16.1 °C 33626.4 hPa WNW 41.7 km/h 44.6 km/h 89 % 0 mm
21:33 -15.3 °C -16.1 °C 33626.4 hPa North 20.3 km/h 41.7 km/h 88 % 0 mm
21:37 -15.3 °C -16.1 °C 33626.4 hPa NNW 26.7 km/h 41.7 km/h 88 % 0 mm
21:42 -15.3 °C -16.1 °C 33626.4 hPa WNW 27.2 km/h 48.1 km/h 88 % 0 mm
21:43 -15.4 °C -16.1 °C 33626.4 hPa North 16.3 km/h 48.1 km/h 88 % 0 mm
21:48 -15.4 °C -16.1 °C 33626.4 hPa WNW 20.3 km/h 48.1 km/h 88 % 0 mm
21:53 -15.4 °C -16.1 °C 33626.4 hPa North 22.5 km/h 39.9 km/h 88 % 0 mm
21:56 -15.4 °C -16.1 °C 33626.4 hPa NE 15 km/h 28.5 km/h 88 % 0 mm
21:57 -15.4 °C -16.1 °C 33626.4 hPa WNW 14.5 km/h 28.5 km/h 88 % 0 mm
22:02 -15.4 °C -16.1 °C 33626.4 hPa NNW 14 km/h 33.6 km/h 88 % 0 mm
22:03 -15.4 °C -16.1 °C 33626.4 hPa NE 22 km/h 33.6 km/h 88 % 0 mm
22:05 -15.4 °C -16.1 °C 33626.4 hPa NW 26.2 km/h 33.6 km/h 88 % 0 mm
22:10 -15.4 °C -16.1 °C 33626.4 hPa North 19.6 km/h 33.6 km/h 88 % 0 mm
22:12 -15.4 °C -16.1 °C 33626.4 hPa North 9.8 km/h 27.7 km/h 88 % 0 mm
22:14 -15.4 °C -16.1 °C 33626.4 hPa NW 10.3 km/h 27.7 km/h 88 % 0 mm
22:19 -15.4 °C -16.1 °C 33626.4 hPa NNW 6.9 km/h 38.3 km/h 87 % 0 mm
22:23 -15.4 °C -16.1 °C 33626.4 hPa NNE 14 km/h 38.3 km/h 87 % 0 mm
22:26 -15.3 °C -16.1 °C 33626.4 hPa SSW 33.6 km/h 33.6 km/h 87 % 0 mm
22:31 -15.3 °C -16.1 °C 33626.4 hPa NNE 15 km/h 33.6 km/h 87 % 0 mm
22:35 -15.3 °C -16.1 °C 33626.4 hPa WNW 16.3 km/h 33.6 km/h 87 % 0 mm
22:37 -15.3 °C -16.1 °C 33626.4 hPa WNW 18.7 km/h 33.2 km/h 87 % 0 mm
22:41 -15.3 °C -16.1 °C 33660.2 hPa NW 8 km/h 33.2 km/h 87 % 0 mm
22:43 -15.3 °C -16.1 °C 33660.2 hPa NNW 14.5 km/h 33.2 km/h 87 % 0 mm
22:49 -15.3 °C -16.7 °C 33660.2 hPa North 15 km/h 26.7 km/h 86 % 0 mm
22:51 -15.3 °C -16.7 °C 33660.2 hPa WNW 16.9 km/h 28.5 km/h 86 % 0 mm
22:55 -15.3 °C -16.7 °C 33660.2 hPa North 20.3 km/h 37.5 km/h 86 % 0 mm
22:57 -15.3 °C -16.7 °C 33660.2 hPa NNW 12.7 km/h 37.5 km/h 86 % 0 mm
23:02 -15.3 °C -16.7 °C 33660.2 hPa NW 18.7 km/h 37.5 km/h 85 % 0 mm
23:04 -15.4 °C -16.7 °C 33660.2 hPa WNW 9.8 km/h 31.4 km/h 85 % 0 mm
23:06 -15.4 °C -16.7 °C 33660.2 hPa West 6.4 km/h 31.4 km/h 85 % 0 mm
23:10 -15.4 °C -16.7 °C 33660.2 hPa NNE 19.6 km/h 27.2 km/h 85 % 0 mm
23:14 -15.4 °C -16.7 °C 33694.1 hPa WNW 10.3 km/h 27.2 km/h 85 % 0 mm
23:15 -15.4 °C -16.7 °C 33694.1 hPa WNW 16.3 km/h 22.5 km/h 85 % 0 mm
23:21 -15.4 °C -16.7 °C 33694.1 hPa NNW 24.8 km/h 39.9 km/h 85 % 0 mm
23:22 -15.4 °C -16.7 °C 33694.1 hPa WNW 20.3 km/h 39.9 km/h 85 % 0 mm
23:25 -15.4 °C -16.7 °C 33694.1 hPa West 15.6 km/h 39.9 km/h 84 % 0 mm
23:30 -15.5 °C -16.7 °C 33694.1 hPa NNE 24.3 km/h 28.5 km/h 84 % 0 mm
23:35 -15.5 °C -16.7 °C 33694.1 hPa NNW 15 km/h 29.5 km/h 84 % 0 mm
23:36 -15.5 °C -16.7 °C 33694.1 hPa NNW 10.3 km/h 29.5 km/h 84 % 0 mm
23:41 -15.6 °C -16.7 °C 33694.1 hPa West 8 km/h 29.5 km/h 84 % 0 mm
23:46 -15.6 °C -16.7 °C 33694.1 hPa NNW 2.9 km/h 27.2 km/h 85 % 0 mm
23:48 -15.6 °C -16.7 °C 33694.1 hPa West 8.9 km/h 27.2 km/h 85 % 0 mm
23:53 -15.6 °C -16.7 °C 33694.1 hPa WNW 7.6 km/h 27.2 km/h 85 % 0 mm
23:58 -15.6 °C -16.7 °C 33660.2 hPa WNW 19.6 km/h 20.9 km/h 85 % 0 mm
Le Gheer Warneton
Courtoisie de Weather Underground - 2.5 mb

Mise a jour : 18/02/2018 20:35:11
Généré par Cumulus 1.9.4 (1099)